sensor_id;sensor_type;location;lat;lon;timestamp;temperature;humidity
55207;DHT22;41079;52.856;6.534;2022-09-12T00:01:26;12.20;99.90
55207;DHT22;41079;52.856;6.534;2022-09-12T00:03:54;12.10;99.90
55207;DHT22;41079;52.856;6.534;2022-09-12T00:06:23;12.10;99.90
55207;DHT22;41079;52.856;6.534;2022-09-12T00:08:50;12.00;99.90
55207;DHT22;41079;52.856;6.534;2022-09-12T00:11:17;11.90;99.90
55207;DHT22;41079;52.856;6.534;2022-09-12T00:13:43;12.00;99.90
55207;DHT22;41079;52.856;6.534;2022-09-12T00:16:21;11.90;99.90
55207;DHT22;41079;52.856;6.534;2022-09-12T00:18:46;11.90;99.90
55207;DHT22;41079;52.856;6.534;2022-09-12T00:21:13;11.90;99.90
55207;DHT22;41079;52.856;6.534;2022-09-12T00:23:39;11.90;99.90
55207;DHT22;41079;52.856;6.534;2022-09-12T00:26:06;11.90;99.90
55207;DHT22;41079;52.856;6.534;2022-09-12T00:28:36;11.90;99.90
55207;DHT22;41079;52.856;6.534;2022-09-12T00:31:05;11.80;99.90
55207;DHT22;41079;52.856;6.534;2022-09-12T00:33:31;11.80;99.90
55207;DHT22;41079;52.856;6.534;2022-09-12T00:35:57;11.70;99.90
55207;DHT22;41079;52.856;6.534;2022-09-12T00:38:22;11.70;99.90
55207;DHT22;41079;52.856;6.534;2022-09-12T00:40:48;11.70;99.90
55207;DHT22;41079;52.856;6.534;2022-09-12T00:51:42;11.50;99.90
55207;DHT22;41079;52.856;6.534;2022-09-12T00:54:11;11.50;99.90
55207;DHT22;41079;52.856;6.534;2022-09-12T00:56:42;11.50;99.90
55207;DHT22;41079;52.856;6.534;2022-09-12T00:59:24;11.60;99.90
55207;DHT22;41079;52.856;6.534;2022-09-12T01:01:52;11.60;99.90
55207;DHT22;41079;52.856;6.534;2022-09-12T01:04:19;11.60;99.90
55207;DHT22;41079;52.856;6.534;2022-09-12T01:06:47;11.60;99.90
55207;DHT22;41079;52.856;6.534;2022-09-12T01:09:16;11.60;99.90
55207;DHT22;41079;52.856;6.534;2022-09-12T01:11:44;11.60;99.90
55207;DHT22;41079;52.856;6.534;2022-09-12T01:14:12;11.60;99.90
55207;DHT22;41079;52.856;6.534;2022-09-12T01:16:38;11.50;99.90
55207;DHT22;41079;52.856;6.534;2022-09-12T01:22:10;11.50;99.90
55207;DHT22;41079;52.856;6.534;2022-09-12T01:30:44;11.60;99.90
55207;DHT22;41079;52.856;6.534;2022-09-12T01:33:34;11.60;99.90
55207;DHT22;41079;52.856;6.534;2022-09-12T01:36:30;11.60;99.90
55207;DHT22;41079;52.856;6.534;2022-09-12T01:39:15;11.60;99.90
55207;DHT22;41079;52.856;6.534;2022-09-12T01:42:07;11.70;99.90
55207;DHT22;41079;52.856;6.534;2022-09-12T01:45:02;11.60;99.90
55207;DHT22;41079;52.856;6.534;2022-09-12T01:47:49;11.50;99.90
55207;DHT22;41079;52.856;6.534;2022-09-12T01:50:36;11.50;99.90
55207;DHT22;41079;52.856;6.534;2022-09-12T01:53:12;11.50;99.90
55207;DHT22;41079;52.856;6.534;2022-09-12T01:55:44;11.60;99.90
55207;DHT22;41079;52.856;6.534;2022-09-12T01:58:26;11.70;99.90
55207;DHT22;41079;52.856;6.534;2022-09-12T02:01:07;11.70;99.90
55207;DHT22;41079;52.856;6.534;2022-09-12T02:03:59;11.80;99.90
55207;DHT22;41079;52.856;6.534;2022-09-12T02:13:48;11.70;99.90
55207;DHT22;41079;52.856;6.534;2022-09-12T02:20:05;11.70;99.90
55207;DHT22;41079;52.856;6.534;2022-09-12T02:22:42;11.60;99.90
55207;DHT22;41079;52.856;6.534;2022-09-12T02:25:18;11.60;99.90
55207;DHT22;41079;52.856;6.534;2022-09-12T02:28:13;11.50;99.90
55207;DHT22;41079;52.856;6.534;2022-09-12T02:40:57;11.30;99.90
55207;DHT22;41079;52.856;6.534;2022-09-12T02:43:50;11.20;99.90
55207;DHT22;41079;52.856;6.534;2022-09-12T02:52:59;11.10;99.90
55207;DHT22;41079;52.856;6.534;2022-09-12T02:55:51;11.10;99.90
55207;DHT22;41079;52.856;6.534;2022-09-12T03:14:35;11.00;99.90
55207;DHT22;41079;52.856;6.534;2022-09-12T03:24:24;11.00;99.90
55207;DHT22;41079;52.856;6.534;2022-09-12T03:33:02;10.90;99.90
55207;DHT22;41079;52.856;6.534;2022-09-12T03:39:42;10.90;99.90
55207;DHT22;41079;52.856;6.534;2022-09-12T03:42:11;10.90;99.90
55207;DHT22;41079;52.856;6.534;2022-09-12T03:44:42;10.90;99.90
55207;DHT22;41079;52.856;6.534;2022-09-12T03:47:09;10.80;99.90
55207;DHT22;41079;52.856;6.534;2022-09-12T03:49:40;10.80;99.90
55207;DHT22;41079;52.856;6.534;2022-09-12T03:52:12;10.90;99.90
55207;DHT22;41079;52.856;6.534;2022-09-12T03:58:14;10.90;99.90
55207;DHT22;41079;52.856;6.534;2022-09-12T04:04:07;11.00;99.90
55207;DHT22;41079;52.856;6.534;2022-09-12T04:06:58;11.10;99.90
55207;DHT22;41079;52.856;6.534;2022-09-12T04:09:24;11.10;99.90
55207;DHT22;41079;52.856;6.534;2022-09-12T04:12:12;11.10;99.90
55207;DHT22;41079;52.856;6.534;2022-09-12T04:18:49;11.10;99.90
55207;DHT22;41079;52.856;6.534;2022-09-12T04:21:31;11.10;99.90
55207;DHT22;41079;52.856;6.534;2022-09-12T04:24:04;11.10;99.90
55207;DHT22;41079;52.856;6.534;2022-09-12T04:27:05;11.10;99.90
55207;DHT22;41079;52.856;6.534;2022-09-12T04:29:35;11.10;99.90
55207;DHT22;41079;52.856;6.534;2022-09-12T04:32:10;11.00;99.90
55207;DHT22;41079;52.856;6.534;2022-09-12T04:38:22;11.10;99.90
55207;DHT22;41079;52.856;6.534;2022-09-12T04:41:24;11.00;99.90
55207;DHT22;41079;52.856;6.534;2022-09-12T04:55:27;11.10;99.90
55207;DHT22;41079;52.856;6.534;2022-09-12T04:58:25;11.10;99.90
55207;DHT22;41079;52.856;6.534;2022-09-12T05:01:06;11.10;99.90
55207;DHT22;41079;52.856;6.534;2022-09-12T05:03:33;11.10;99.90
55207;DHT22;41079;52.856;6.534;2022-09-12T05:09:30;11.30;99.90
55207;DHT22;41079;52.856;6.534;2022-09-12T05:12:05;11.40;99.90
55207;DHT22;41079;52.856;6.534;2022-09-12T05:14:41;11.50;99.90
55207;DHT22;41079;52.856;6.534;2022-09-12T05:17:24;11.60;99.90
55207;DHT22;41079;52.856;6.534;2022-09-12T05:19:54;11.70;99.90
55207;DHT22;41079;52.856;6.534;2022-09-12T05:22:33;11.80;99.90
55207;DHT22;41079;52.856;6.534;2022-09-12T05:24:58;11.80;99.90
55207;DHT22;41079;52.856;6.534;2022-09-12T05:27:25;11.80;99.90
55207;DHT22;41079;52.856;6.534;2022-09-12T05:29:53;12.00;99.90
55207;DHT22;41079;52.856;6.534;2022-09-12T05:32:30;12.20;99.90
55207;DHT22;41079;52.856;6.534;2022-09-12T05:34:58;12.50;99.90
55207;DHT22;41079;52.856;6.534;2022-09-12T05:37:27;12.60;99.90
55207;DHT22;41079;52.856;6.534;2022-09-12T05:40:08;12.80;99.90
55207;DHT22;41079;52.856;6.534;2022-09-12T05:42:37;13.00;99.90
55207;DHT22;41079;52.856;6.534;2022-09-12T05:45:04;13.30;99.90
55207;DHT22;41079;52.856;6.534;2022-09-12T05:47:41;13.50;99.90
55207;DHT22;41079;52.856;6.534;2022-09-12T05:50:08;13.80;99.90
55207;DHT22;41079;52.856;6.534;2022-09-12T05:52:42;14.10;99.90
55207;DHT22;41079;52.856;6.534;2022-09-12T05:55:08;14.20;99.90
55207;DHT22;41079;52.856;6.534;2022-09-12T05:57:43;14.20;99.90
55207;DHT22;41079;52.856;6.534;2022-09-12T06:00:18;14.10;99.90
55207;DHT22;41079;52.856;6.534;2022-09-12T06:03:02;14.10;99.90
55207;DHT22;41079;52.856;6.534;2022-09-12T06:05:28;14.10;99.90
55207;DHT22;41079;52.856;6.534;2022-09-12T06:07:54;14.10;99.90
55207;DHT22;41079;52.856;6.534;2022-09-12T06:10:43;14.00;99.90
55207;DHT22;41079;52.856;6.534;2022-09-12T06:13:38;14.00;99.90
55207;DHT22;41079;52.856;6.534;2022-09-12T06:16:12;14.00;99.90
55207;DHT22;41079;52.856;6.534;2022-09-12T06:18:39;14.00;99.90
55207;DHT22;41079;52.856;6.534;2022-09-12T06:21:28;14.00;99.90
55207;DHT22;41079;52.856;6.534;2022-09-12T06:24:18;14.10;99.90
55207;DHT22;41079;52.856;6.534;2022-09-12T06:27:08;14.10;99.90
55207;DHT22;41079;52.856;6.534;2022-09-12T06:29:39;14.10;99.90
55207;DHT22;41079;52.856;6.534;2022-09-12T06:32:12;14.10;99.90
55207;DHT22;41079;52.856;6.534;2022-09-12T06:34:37;14.10;99.90
55207;DHT22;41079;52.856;6.534;2022-09-12T06:37:03;14.20;99.90
55207;DHT22;41079;52.856;6.534;2022-09-12T06:39:29;14.20;99.90
55207;DHT22;41079;52.856;6.534;2022-09-12T06:42:00;14.20;99.90
55207;DHT22;41079;52.856;6.534;2022-09-12T06:44:27;14.20;99.90
55207;DHT22;41079;52.856;6.534;2022-09-12T06:46:54;14.20;99.90
55207;DHT22;41079;52.856;6.534;2022-09-12T06:49:19;14.30;99.90
55207;DHT22;41079;52.856;6.534;2022-09-12T06:51:45;14.40;99.90
55207;DHT22;41079;52.856;6.534;2022-09-12T06:54:27;14.40;99.90
55207;DHT22;41079;52.856;6.534;2022-09-12T06:56:53;14.50;99.90
55207;DHT22;41079;52.856;6.534;2022-09-12T06:59:19;14.50;99.90
55207;DHT22;41079;52.856;6.534;2022-09-12T07:01:44;14.50;99.90
55207;DHT22;41079;52.856;6.534;2022-09-12T07:04:10;14.60;99.90
55207;DHT22;41079;52.856;6.534;2022-09-12T07:06:42;14.60;99.90
55207;DHT22;41079;52.856;6.534;2022-09-12T07:09:11;14.70;99.90
55207;DHT22;41079;52.856;6.534;2022-09-12T07:11:44;14.70;99.90
55207;DHT22;41079;52.856;6.534;2022-09-12T07:14:13;14.70;99.90
55207;DHT22;41079;52.856;6.534;2022-09-12T07:16:41;14.70;99.90
55207;DHT22;41079;52.856;6.534;2022-09-12T07:19:10;14.70;99.90
55207;DHT22;41079;52.856;6.534;2022-09-12T07:21:37;14.80;99.90
55207;DHT22;41079;52.856;6.534;2022-09-12T07:24:09;14.80;99.90
55207;DHT22;41079;52.856;6.534;2022-09-12T07:26:48;14.80;99.90
55207;DHT22;41079;52.856;6.534;2022-09-12T07:29:16;14.80;99.90
55207;DHT22;41079;52.856;6.534;2022-09-12T07:31:41;14.90;99.90
55207;DHT22;41079;52.856;6.534;2022-09-12T07:34:07;15.00;99.90
55207;DHT22;41079;52.856;6.534;2022-09-12T07:36:33;15.10;99.90
55207;DHT22;41079;52.856;6.534;2022-09-12T07:39:02;15.20;99.90
55207;DHT22;41079;52.856;6.534;2022-09-12T07:41:29;15.30;99.90
55207;DHT22;41079;52.856;6.534;2022-09-12T07:43:57;15.50;99.90
55207;DHT22;41079;52.856;6.534;2022-09-12T07:46:24;15.70;99.90
55207;DHT22;41079;52.856;6.534;2022-09-12T07:48:55;15.80;99.90
55207;DHT22;41079;52.856;6.534;2022-09-12T07:51:24;15.90;99.90
55207;DHT22;41079;52.856;6.534;2022-09-12T07:53:50;16.00;99.90
55207;DHT22;41079;52.856;6.534;2022-09-12T07:56:23;16.00;99.90
55207;DHT22;41079;52.856;6.534;2022-09-12T07:58:49;16.10;99.90
55207;DHT22;41079;52.856;6.534;2022-09-12T08:01:19;16.00;99.90
55207;DHT22;41079;52.856;6.534;2022-09-12T08:03:47;16.00;99.90
55207;DHT22;41079;52.856;6.534;2022-09-12T08:06:15;16.10;99.90
55207;DHT22;41079;52.856;6.534;2022-09-12T08:08:44;16.10;99.90
55207;DHT22;41079;52.856;6.534;2022-09-12T08:11:12;16.20;99.90
55207;DHT22;41079;52.856;6.534;2022-09-12T08:13:39;16.20;99.90
55207;DHT22;41079;52.856;6.534;2022-09-12T08:16:07;16.20;99.90
55207;DHT22;41079;52.856;6.534;2022-09-12T08:18:34;16.30;99.90
55207;DHT22;41079;52.856;6.534;2022-09-12T08:21:03;16.30;99.90
55207;DHT22;41079;52.856;6.534;2022-09-12T08:23:29;16.30;99.90
55207;DHT22;41079;52.856;6.534;2022-09-12T08:25:56;16.50;99.90
55207;DHT22;41079;52.856;6.534;2022-09-12T08:28:26;16.60;99.90
55207;DHT22;41079;52.856;6.534;2022-09-12T08:30:52;16.70;99.90
55207;DHT22;41079;52.856;6.534;2022-09-12T08:33:18;16.80;99.90
55207;DHT22;41079;52.856;6.534;2022-09-12T08:35:43;16.90;99.90
55207;DHT22;41079;52.856;6.534;2022-09-12T08:38:09;17.00;99.90
55207;DHT22;41079;52.856;6.534;2022-09-12T08:40:52;17.10;99.90
55207;DHT22;41079;52.856;6.534;2022-09-12T08:49:25;17.70;99.90
55207;DHT22;41079;52.856;6.534;2022-09-12T08:51:54;17.90;99.90
55207;DHT22;41079;52.856;6.534;2022-09-12T08:54:24;18.10;99.90
55207;DHT22;41079;52.856;6.534;2022-09-12T08:56:51;18.30;99.90
55207;DHT22;41079;52.856;6.534;2022-09-12T08:59:21;18.50;99.90
55207;DHT22;41079;52.856;6.534;2022-09-12T09:01:47;18.80;99.90
55207;DHT22;41079;52.856;6.534;2022-09-12T09:04:55;19.00;99.90
55207;DHT22;41079;52.856;6.534;2022-09-12T09:07:32;19.30;99.90
55207;DHT22;41079;52.856;6.534;2022-09-12T09:10:28;19.40;99.90
55207;DHT22;41079;52.856;6.534;2022-09-12T09:18:23;19.40;99.90
55207;DHT22;41079;52.856;6.534;2022-09-12T09:20:55;19.40;99.90
55207;DHT22;41079;52.856;6.534;2022-09-12T09:23:35;19.50;99.90
55207;DHT22;41079;52.856;6.534;2022-09-12T09:26:10;19.70;99.90
55207;DHT22;41079;52.856;6.534;2022-09-12T09:28:46;19.90;99.90
55207;DHT22;41079;52.856;6.534;2022-09-12T09:31:19;20.20;99.90
55207;DHT22;41079;52.856;6.534;2022-09-12T09:33:48;20.40;99.90
55207;DHT22;41079;52.856;6.534;2022-09-12T09:44:20;20.70;99.90
55207;DHT22;41079;52.856;6.534;2022-09-12T09:46:48;20.80;99.90
55207;DHT22;41079;52.856;6.534;2022-09-12T09:49:18;21.00;99.90
55207;DHT22;41079;52.856;6.534;2022-09-12T09:51:45;21.30;99.90
55207;DHT22;41079;52.856;6.534;2022-09-12T09:54:20;21.50;99.90
55207;DHT22;41079;52.856;6.534;2022-09-12T09:56:47;21.60;99.90
55207;DHT22;41079;52.856;6.534;2022-09-12T10:01:59;21.60;99.90
55207;DHT22;41079;52.856;6.534;2022-09-12T10:04:34;21.60;99.90
55207;DHT22;41079;52.856;6.534;2022-09-12T10:07:02;21.70;99.90
55207;DHT22;41079;52.856;6.534;2022-09-12T10:09:30;21.80;99.90
55207;DHT22;41079;52.856;6.534;2022-09-12T10:12:00;21.70;99.90
55207;DHT22;41079;52.856;6.534;2022-09-12T10:17:00;21.80;99.90
55207;DHT22;41079;52.856;6.534;2022-09-12T10:19:37;22.00;99.90
55207;DHT22;41079;52.856;6.534;2022-09-12T10:22:04;22.20;99.90
55207;DHT22;41079;52.856;6.534;2022-09-12T10:24:38;22.60;99.90
55207;DHT22;41079;52.856;6.534;2022-09-12T10:27:15;22.90;99.90
55207;DHT22;41079;52.856;6.534;2022-09-12T10:29:52;23.00;99.90
55207;DHT22;41079;52.856;6.534;2022-09-12T10:32:26;23.10;99.90
55207;DHT22;41079;52.856;6.534;2022-09-12T10:35:00;23.20;99.90
55207;DHT22;41079;52.856;6.534;2022-09-12T10:37:32;23.20;99.90
55207;DHT22;41079;52.856;6.534;2022-09-12T10:40:00;23.20;99.90
55207;DHT22;41079;52.856;6.534;2022-09-12T10:47:42;23.00;99.90
55207;DHT22;41079;52.856;6.534;2022-09-12T10:53:12;23.40;99.00
55207;DHT22;41079;52.856;6.534;2022-09-12T10:55:41;23.40;99.90
55207;DHT22;41079;52.856;6.534;2022-09-12T10:58:39;23.50;99.90
55207;DHT22;41079;52.856;6.534;2022-09-12T11:09:26;24.30;97.10
55207;DHT22;41079;52.856;6.534;2022-09-12T11:12:27;24.40;94.40
55207;DHT22;41079;52.856;6.534;2022-09-12T11:17:45;24.70;95.20
55207;DHT22;41079;52.856;6.534;2022-09-12T11:20:25;24.80;95.90
55207;DHT22;41079;52.856;6.534;2022-09-12T11:23:04;25.00;95.70
55207;DHT22;41079;52.856;6.534;2022-09-12T11:28:42;24.90;93.40
55207;DHT22;41079;52.856;6.534;2022-09-12T11:34:07;25.20;93.30
55207;DHT22;41079;52.856;6.534;2022-09-12T11:37:14;25.30;93.10
55207;DHT22;41079;52.856;6.534;2022-09-12T11:39:44;25.20;92.00
55207;DHT22;41079;52.856;6.534;2022-09-12T11:42:34;24.90;92.10
55207;DHT22;41079;52.856;6.534;2022-09-12T11:45:26;24.70;92.50
55207;DHT22;41079;52.856;6.534;2022-09-12T11:47:56;24.40;89.60
55207;DHT22;41079;52.856;6.534;2022-09-12T11:50:29;24.50;93.00
55207;DHT22;41079;52.856;6.534;2022-09-12T11:58:21;24.90;91.40
55207;DHT22;41079;52.856;6.534;2022-09-12T12:00:50;25.10;92.20
55207;DHT22;41079;52.856;6.534;2022-09-12T12:08:42;24.90;90.60
55207;DHT22;41079;52.856;6.534;2022-09-12T12:11:09;24.80;90.30
55207;DHT22;41079;52.856;6.534;2022-09-12T12:16:13;25.00;88.30
55207;DHT22;41079;52.856;6.534;2022-09-12T12:18:41;25.10;89.80
55207;DHT22;41079;52.856;6.534;2022-09-12T12:21:30;25.30;86.20
55207;DHT22;41079;52.856;6.534;2022-09-12T12:34:37;25.50;81.30
55207;DHT22;41079;52.856;6.534;2022-09-12T12:48:08;25.70;74.10
55207;DHT22;41079;52.856;6.534;2022-09-12T12:50:34;25.80;72.90
55207;DHT22;41079;52.856;6.534;2022-09-12T12:53:21;25.70;72.10
55207;DHT22;41079;52.856;6.534;2022-09-12T12:55:50;25.80;73.10
55207;DHT22;41079;52.856;6.534;2022-09-12T12:58:33;26.00;75.60
55207;DHT22;41079;52.856;6.534;2022-09-12T13:01:20;26.10;74.80
55207;DHT22;41079;52.856;6.534;2022-09-12T13:04:02;26.20;76.70
55207;DHT22;41079;52.856;6.534;2022-09-12T13:06:41;26.30;75.50
55207;DHT22;41079;52.856;6.534;2022-09-12T13:11:40;26.30;68.90
55207;DHT22;41079;52.856;6.534;2022-09-12T13:17:35;26.30;71.50
55207;DHT22;41079;52.856;6.534;2022-09-12T13:22:40;26.20;70.60
55207;DHT22;41079;52.856;6.534;2022-09-12T13:25:32;26.30;73.20
55207;DHT22;41079;52.856;6.534;2022-09-12T13:30:37;26.50;72.40
55207;DHT22;41079;52.856;6.534;2022-09-12T13:33:17;26.50;71.10
55207;DHT22;41079;52.856;6.534;2022-09-12T13:39:00;26.20;70.60
55207;DHT22;41079;52.856;6.534;2022-09-12T13:44:25;26.10;71.70
55207;DHT22;41079;52.856;6.534;2022-09-12T13:46:52;26.20;72.30
55207;DHT22;41079;52.856;6.534;2022-09-12T13:49:32;26.30;72.60
55207;DHT22;41079;52.856;6.534;2022-09-12T13:52:05;26.20;71.20
55207;DHT22;41079;52.856;6.534;2022-09-12T13:54:33;26.30;71.80
55207;DHT22;41079;52.856;6.534;2022-09-12T13:56:59;26.20;72.30
55207;DHT22;41079;52.856;6.534;2022-09-12T13:59:25;26.00;70.80
55207;DHT22;41079;52.856;6.534;2022-09-12T14:01:51;25.90;69.40
55207;DHT22;41079;52.856;6.534;2022-09-12T14:04:25;25.90;73.00
55207;DHT22;41079;52.856;6.534;2022-09-12T14:09:41;25.60;69.70
55207;DHT22;41079;52.856;6.534;2022-09-12T14:12:18;25.40;71.90
55207;DHT22;41079;52.856;6.534;2022-09-12T14:14:48;25.50;72.60
55207;DHT22;41079;52.856;6.534;2022-09-12T14:20:02;25.70;71.70
55207;DHT22;41079;52.856;6.534;2022-09-12T14:22:30;25.80;69.20
55207;DHT22;41079;52.856;6.534;2022-09-12T14:24:57;25.80;68.40
55207;DHT22;41079;52.856;6.534;2022-09-12T14:27:26;25.90;70.20
55207;DHT22;41079;52.856;6.534;2022-09-12T14:30:04;25.90;68.00
55207;DHT22;41079;52.856;6.534;2022-09-12T14:32:32;25.80;67.80
55207;DHT22;41079;52.856;6.534;2022-09-12T14:37:36;25.80;69.70
55207;DHT22;41079;52.856;6.534;2022-09-12T14:40:02;25.80;69.10
55207;DHT22;41079;52.856;6.534;2022-09-12T14:42:30;25.80;69.50
55207;DHT22;41079;52.856;6.534;2022-09-12T14:45:14;25.70;68.60
55207;DHT22;41079;52.856;6.534;2022-09-12T14:47:42;25.60;68.70
55207;DHT22;41079;52.856;6.534;2022-09-12T14:50:18;25.40;68.60
55207;DHT22;41079;52.856;6.534;2022-09-12T14:52:45;25.20;68.50
55207;DHT22;41079;52.856;6.534;2022-09-12T14:55:32;25.10;68.10
55207;DHT22;41079;52.856;6.534;2022-09-12T15:01:01;25.10;72.20
55207;DHT22;41079;52.856;6.534;2022-09-12T15:03:50;25.10;71.00
55207;DHT22;41079;52.856;6.534;2022-09-12T15:06:31;24.90;70.70
55207;DHT22;41079;52.856;6.534;2022-09-12T15:09:05;24.80;70.50
55207;DHT22;41079;52.856;6.534;2022-09-12T15:11:31;24.70;70.50
55207;DHT22;41079;52.856;6.534;2022-09-12T15:13:58;24.60;71.60
55207;DHT22;41079;52.856;6.534;2022-09-12T15:16:30;24.70;71.30
55207;DHT22;41079;52.856;6.534;2022-09-12T15:18:56;24.60;69.50
55207;DHT22;41079;52.856;6.534;2022-09-12T15:21:21;24.60;70.10
55207;DHT22;41079;52.856;6.534;2022-09-12T15:23:49;24.60;71.60
55207;DHT22;41079;52.856;6.534;2022-09-12T15:26:18;24.50;70.70
55207;DHT22;41079;52.856;6.534;2022-09-12T15:28:44;24.40;70.90
55207;DHT22;41079;52.856;6.534;2022-09-12T15:31:30;24.30;72.10
55207;DHT22;41079;52.856;6.534;2022-09-12T15:33:57;24.10;71.70
55207;DHT22;41079;52.856;6.534;2022-09-12T15:36:24;24.00;72.30
55207;DHT22;41079;52.856;6.534;2022-09-12T15:38:50;23.90;72.20
55207;DHT22;41079;52.856;6.534;2022-09-12T15:41:22;23.80;72.90
55207;DHT22;41079;52.856;6.534;2022-09-12T15:43:48;23.80;73.70
55207;DHT22;41079;52.856;6.534;2022-09-12T15:46:16;23.80;74.30
55207;DHT22;41079;52.856;6.534;2022-09-12T15:48:41;23.80;74.40
55207;DHT22;41079;52.856;6.534;2022-09-12T15:51:16;23.80;74.20
55207;DHT22;41079;52.856;6.534;2022-09-12T15:53:43;23.90;74.50
55207;DHT22;41079;52.856;6.534;2022-09-12T15:56:09;23.80;74.50
55207;DHT22;41079;52.856;6.534;2022-09-12T15:58:34;23.80;74.40
55207;DHT22;41079;52.856;6.534;2022-09-12T16:01:00;23.70;73.20
55207;DHT22;41079;52.856;6.534;2022-09-12T16:03:27;23.60;74.80
55207;DHT22;41079;52.856;6.534;2022-09-12T16:06:02;23.40;76.30
55207;DHT22;41079;52.856;6.534;2022-09-12T16:08:29;23.30;76.20
55207;DHT22;41079;52.856;6.534;2022-09-12T16:10:58;23.20;76.40
55207;DHT22;41079;52.856;6.534;2022-09-12T16:13:25;23.10;77.40
55207;DHT22;41079;52.856;6.534;2022-09-12T16:15:51;23.00;77.50
55207;DHT22;41079;52.856;6.534;2022-09-12T16:18:17;23.00;77.90
55207;DHT22;41079;52.856;6.534;2022-09-12T16:20:43;23.00;78.50
55207;DHT22;41079;52.856;6.534;2022-09-12T16:23:12;23.20;79.10
55207;DHT22;41079;52.856;6.534;2022-09-12T16:25:38;23.30;78.10
55207;DHT22;41079;52.856;6.534;2022-09-12T16:28:05;23.30;79.00
55207;DHT22;41079;52.856;6.534;2022-09-12T16:30:32;23.30;78.20
55207;DHT22;41079;52.856;6.534;2022-09-12T16:32:57;23.30;78.40
55207;DHT22;41079;52.856;6.534;2022-09-12T16:35:23;23.40;78.60
55207;DHT22;41079;52.856;6.534;2022-09-12T16:37:49;23.40;79.20
55207;DHT22;41079;52.856;6.534;2022-09-12T16:40:15;23.50;78.60
55207;DHT22;41079;52.856;6.534;2022-09-12T16:42:44;23.50;78.50
55207;DHT22;41079;52.856;6.534;2022-09-12T16:45:10;23.50;78.30
55207;DHT22;41079;52.856;6.534;2022-09-12T16:47:36;23.60;79.50
55207;DHT22;41079;52.856;6.534;2022-09-12T16:50:02;23.60;79.00
55207;DHT22;41079;52.856;6.534;2022-09-12T16:52:27;23.60;78.20
55207;DHT22;41079;52.856;6.534;2022-09-12T16:54:53;23.50;78.70
55207;DHT22;41079;52.856;6.534;2022-09-12T16:57:19;23.50;79.70
55207;DHT22;41079;52.856;6.534;2022-09-12T16:59:44;23.40;79.10
55207;DHT22;41079;52.856;6.534;2022-09-12T17:02:11;23.40;79.90
55207;DHT22;41079;52.856;6.534;2022-09-12T17:04:38;23.30;80.10
55207;DHT22;41079;52.856;6.534;2022-09-12T17:07:03;23.20;80.20
55207;DHT22;41079;52.856;6.534;2022-09-12T17:09:29;23.00;80.70
55207;DHT22;41079;52.856;6.534;2022-09-12T17:11:56;22.80;82.10
55207;DHT22;41079;52.856;6.534;2022-09-12T17:14:22;22.70;82.00
55207;DHT22;41079;52.856;6.534;2022-09-12T17:16:49;22.50;82.10
55207;DHT22;41079;52.856;6.534;2022-09-12T17:19:17;22.40;83.40
55207;DHT22;41079;52.856;6.534;2022-09-12T17:21:44;22.20;83.90
55207;DHT22;41079;52.856;6.534;2022-09-12T17:24:11;22.00;84.80
55207;DHT22;41079;52.856;6.534;2022-09-12T17:26:37;21.90;87.00
55207;DHT22;41079;52.856;6.534;2022-09-12T17:29:03;21.80;89.80
55207;DHT22;41079;52.856;6.534;2022-09-12T17:31:29;21.70;90.70
55207;DHT22;41079;52.856;6.534;2022-09-12T17:33:56;21.50;90.20
55207;DHT22;41079;52.856;6.534;2022-09-12T17:36:22;21.50;90.40
55207;DHT22;41079;52.856;6.534;2022-09-12T17:38:48;21.30;91.50
55207;DHT22;41079;52.856;6.534;2022-09-12T17:41:18;21.10;93.20
55207;DHT22;41079;52.856;6.534;2022-09-12T17:43:48;21.10;95.10
55207;DHT22;41079;52.856;6.534;2022-09-12T17:46:16;21.00;94.90
55207;DHT22;41079;52.856;6.534;2022-09-12T17:48:41;20.90;96.10
55207;DHT22;41079;52.856;6.534;2022-09-12T17:51:12;20.80;97.80
55207;DHT22;41079;52.856;6.534;2022-09-12T17:53:39;20.70;98.20
55207;DHT22;41079;52.856;6.534;2022-09-12T17:56:05;20.50;99.10
55207;DHT22;41079;52.856;6.534;2022-09-12T17:58:32;20.40;99.90
55207;DHT22;41079;52.856;6.534;2022-09-12T18:01:03;20.30;99.90
55207;DHT22;41079;52.856;6.534;2022-09-12T18:03:47;20.20;99.90
55207;DHT22;41079;52.856;6.534;2022-09-12T18:06:13;20.00;99.90
55207;DHT22;41079;52.856;6.534;2022-09-12T18:08:39;19.90;99.90
55207;DHT22;41079;52.856;6.534;2022-09-12T18:11:06;19.80;99.90
55207;DHT22;41079;52.856;6.534;2022-09-12T18:13:32;19.70;99.90
55207;DHT22;41079;52.856;6.534;2022-09-12T18:16:05;19.60;99.90
55207;DHT22;41079;52.856;6.534;2022-09-12T18:18:32;19.40;99.90
55207;DHT22;41079;52.856;6.534;2022-09-12T18:20:57;19.30;99.90
55207;DHT22;41079;52.856;6.534;2022-09-12T18:23:23;19.20;99.90
55207;DHT22;41079;52.856;6.534;2022-09-12T18:25:49;19.00;99.90
55207;DHT22;41079;52.856;6.534;2022-09-12T18:28:14;18.80;99.90
55207;DHT22;41079;52.856;6.534;2022-09-12T18:30:40;18.70;99.90
55207;DHT22;41079;52.856;6.534;2022-09-12T18:33:06;18.60;99.90
55207;DHT22;41079;52.856;6.534;2022-09-12T18:35:32;18.60;99.90
55207;DHT22;41079;52.856;6.534;2022-09-12T18:37:57;18.60;99.90
55207;DHT22;41079;52.856;6.534;2022-09-12T18:40:23;18.50;99.90
55207;DHT22;41079;52.856;6.534;2022-09-12T18:42:48;18.50;99.90
55207;DHT22;41079;52.856;6.534;2022-09-12T18:45:14;18.50;99.90
55207;DHT22;41079;52.856;6.534;2022-09-12T18:47:39;18.50;99.90
55207;DHT22;41079;52.856;6.534;2022-09-12T18:50:06;18.50;99.90
55207;DHT22;41079;52.856;6.534;2022-09-12T18:52:32;18.40;99.90
55207;DHT22;41079;52.856;6.534;2022-09-12T18:54:57;18.50;99.90
55207;DHT22;41079;52.856;6.534;2022-09-12T18:57:23;18.50;99.90
55207;DHT22;41079;52.856;6.534;2022-09-12T18:59:49;18.50;99.90
55207;DHT22;41079;52.856;6.534;2022-09-12T19:02:16;18.50;99.90
55207;DHT22;41079;52.856;6.534;2022-09-12T19:04:41;18.50;99.90
55207;DHT22;41079;52.856;6.534;2022-09-12T19:07:07;18.60;99.90
55207;DHT22;41079;52.856;6.534;2022-09-12T19:09:32;18.60;99.90
55207;DHT22;41079;52.856;6.534;2022-09-12T19:11:58;18.60;99.90
55207;DHT22;41079;52.856;6.534;2022-09-12T19:14:25;18.60;99.90
55207;DHT22;41079;52.856;6.534;2022-09-12T19:16:51;18.60;99.90
55207;DHT22;41079;52.856;6.534;2022-09-12T19:19:18;18.60;99.90
55207;DHT22;41079;52.856;6.534;2022-09-12T19:21:44;18.70;99.90
55207;DHT22;41079;52.856;6.534;2022-09-12T19:24:10;18.60;99.90
55207;DHT22;41079;52.856;6.534;2022-09-12T19:26:36;18.70;99.90
55207;DHT22;41079;52.856;6.534;2022-09-12T19:29:02;18.70;99.90
55207;DHT22;41079;52.856;6.534;2022-09-12T19:31:29;18.70;99.90
55207;DHT22;41079;52.856;6.534;2022-09-12T19:34:00;18.60;99.90
55207;DHT22;41079;52.856;6.534;2022-09-12T19:36:26;18.60;99.90
55207;DHT22;41079;52.856;6.534;2022-09-12T19:38:52;18.50;99.90